createdAt,value
2022-12-13T00:01:56.776Z,57.13
2022-12-13T00:04:26.205Z,56.89
2022-12-13T00:06:54.984Z,56.15
2022-12-13T00:09:23.746Z,55.24
2022-12-13T00:11:52.225Z,54.20
2022-12-13T00:14:20.442Z,54.75
2022-12-13T00:16:51.074Z,54.97
2022-12-13T00:19:20.378Z,55.71
2022-12-13T00:21:48.700Z,54.97
2022-12-13T00:24:17.112Z,55.34
2022-12-13T00:26:45.782Z,55.37
2022-12-13T00:29:14.172Z,55.00
2022-12-13T00:34:31.918Z,53.38
2022-12-13T00:37:00.280Z,53.20
2022-12-13T00:39:30.754Z,53.48
2022-12-13T00:41:59.263Z,53.01
2022-12-13T00:44:27.721Z,53.13
2022-12-13T00:46:56.516Z,53.03
2022-12-13T00:49:25.251Z,53.11
2022-12-13T00:51:54.709Z,52.25
2022-12-13T00:54:22.930Z,53.35
2022-12-13T00:56:52.281Z,53.84
2022-12-13T00:59:21.241Z,52.79
2022-12-13T01:01:49.708Z,54.04
2022-12-13T01:04:17.884Z,53.61
2022-12-13T01:06:49.841Z,52.92
2022-12-13T01:09:27.349Z,53.01
2022-12-13T01:11:59.364Z,52.35
2022-12-13T01:14:28.929Z,52.79
2022-12-13T01:16:57.341Z,51.93
2022-12-13T01:19:27.213Z,52.78
2022-12-13T01:21:56.194Z,52.85
2022-12-13T01:24:26.045Z,53.12
2022-12-13T01:26:57.005Z,53.20
2022-12-13T01:29:26.855Z,52.71
2022-12-13T01:31:55.616Z,52.86
2022-12-13T01:34:26.131Z,52.21
2022-12-13T01:36:58.078Z,52.51
2022-12-13T01:39:29.403Z,53.27
2022-12-13T01:42:02.771Z,53.14
2022-12-13T01:45:14.009Z,52.93
2022-12-13T01:47:46.960Z,52.15
2022-12-13T01:50:19.667Z,53.58
2022-12-13T01:52:50.268Z,53.31
2022-12-13T01:55:23.121Z,53.40
2022-12-13T01:57:54.623Z,54.26
2022-12-13T02:00:23.103Z,53.71
2022-12-13T02:02:51.219Z,53.37
2022-12-13T02:05:27.596Z,54.23
2022-12-13T02:07:58.694Z,53.39
2022-12-13T02:10:29.230Z,53.50
2022-12-13T02:12:58.788Z,53.63
2022-12-13T02:15:35.221Z,54.68
2022-12-13T02:18:28.262Z,55.24
2022-12-13T02:21:08.306Z,55.21
2022-12-13T02:24:24.559Z,54.47
2022-12-13T02:27:03.298Z,54.18
2022-12-13T02:30:20.734Z,52.88
2022-12-13T02:33:11.409Z,53.05
2022-12-13T02:35:46.289Z,53.13
2022-12-13T02:38:30.648Z,53.00
2022-12-13T02:41:16.820Z,52.69
2022-12-13T02:43:51.568Z,52.57
2022-12-13T02:46:34.219Z,51.81
2022-12-13T02:49:02.983Z,51.84
2022-12-13T02:51:32.765Z,52.17
2022-12-13T02:54:00.821Z,52.64
2022-12-13T02:56:29.042Z,52.05
2022-12-13T02:58:59.288Z,52.29
2022-12-13T03:01:50.622Z,52.53
2022-12-13T03:04:37.508Z,52.69
2022-12-13T03:07:19.052Z,52.47
2022-12-13T03:09:59.443Z,53.34
2022-12-13T03:12:53.182Z,53.92
2022-12-13T03:15:27.914Z,53.97
2022-12-13T03:18:03.122Z,54.41
2022-12-13T03:20:32.291Z,55.84
2022-12-13T03:23:00.735Z,55.76
2022-12-13T03:25:33.040Z,55.43
2022-12-13T03:28:02.861Z,54.75
2022-12-13T03:30:32.971Z,53.86
2022-12-13T03:33:02.734Z,53.88
2022-12-13T03:35:35.039Z,54.01
2022-12-13T03:38:21.374Z,53.09
2022-12-13T03:40:55.183Z,53.44
2022-12-13T03:43:23.682Z,52.39
2022-12-13T03:45:52.879Z,52.18
2022-12-13T03:48:24.094Z,52.86
2022-12-13T03:50:54.447Z,52.80
2022-12-13T03:53:33.085Z,53.83
2022-12-13T03:56:04.055Z,54.24
2022-12-13T03:58:36.157Z,55.01
2022-12-13T04:01:07.792Z,54.70
2022-12-13T04:03:38.601Z,54.02
2022-12-13T04:06:07.692Z,53.55
2022-12-13T04:08:36.813Z,52.87
2022-12-13T04:11:25.717Z,53.09
2022-12-13T04:13:53.608Z,53.17
2022-12-13T04:16:22.633Z,52.43
2022-12-13T04:18:52.614Z,52.56
2022-12-13T04:21:20.828Z,52.37
2022-12-13T04:23:49.050Z,52.57
2022-12-13T04:26:17.276Z,52.32
2022-12-13T04:28:50.895Z,52.12
2022-12-13T04:31:20.874Z,51.36
2022-12-13T04:33:49.054Z,50.98
2022-12-13T04:36:30.887Z,51.29
2022-12-13T04:41:54.363Z,52.32
2022-12-13T04:44:29.069Z,52.65
2022-12-13T04:47:01.150Z,51.82
2022-12-13T04:49:30.080Z,52.17
2022-12-13T04:52:01.625Z,51.97
2022-12-13T04:54:36.242Z,52.40
2022-12-13T04:57:07.737Z,52.20
2022-12-13T04:59:37.274Z,52.15
2022-12-13T05:02:06.494Z,51.97
2022-12-13T05:04:34.885Z,52.90
2022-12-13T05:07:04.988Z,52.75
2022-12-13T05:09:33.301Z,52.51
2022-12-13T05:12:02.146Z,52.84
2022-12-13T05:14:31.389Z,52.66
2022-12-13T05:16:59.707Z,52.54
2022-12-13T05:19:30.324Z,52.53
2022-12-13T05:22:01.919Z,52.99
2022-12-13T05:24:32.699Z,52.98
2022-12-13T05:27:01.557Z,52.59
2022-12-13T05:29:50.094Z,52.66
2022-12-13T05:32:18.254Z,52.36
2022-12-13T05:34:46.641Z,52.99
2022-12-13T05:37:14.798Z,52.92
2022-12-13T05:39:44.680Z,52.61
2022-12-13T05:42:12.765Z,52.66
2022-12-13T05:44:40.903Z,52.24
2022-12-13T05:47:08.966Z,52.47
2022-12-13T05:49:37.168Z,52.14
2022-12-13T05:52:07.826Z,52.42
2022-12-13T05:54:35.972Z,52.86
2022-12-13T05:57:05.523Z,52.22
2022-12-13T05:59:34.669Z,52.14
2022-12-13T06:02:02.840Z,51.76
2022-12-13T06:04:31.244Z,51.61
2022-12-13T06:06:59.352Z,51.43
2022-12-13T06:09:27.450Z,51.67
2022-12-13T06:12:00.818Z,51.39
2022-12-13T06:14:31.035Z,51.16
2022-12-13T06:16:59.308Z,51.93
2022-12-13T06:19:27.874Z,52.15
2022-12-13T06:21:56.641Z,52.12
2022-12-13T06:24:25.513Z,51.86
2022-12-13T06:26:53.690Z,52.38
2022-12-13T06:29:25.742Z,51.66
2022-12-13T06:32:02.528Z,51.89
2022-12-13T06:34:34.223Z,52.23
2022-12-13T06:37:03.765Z,51.73
2022-12-13T06:39:38.941Z,51.96
2022-12-13T06:42:22.349Z,51.83
2022-12-13T06:44:55.695Z,52.47
2022-12-13T06:47:32.032Z,51.66
2022-12-13T06:50:05.608Z,52.13
2022-12-13T06:52:34.329Z,52.21
2022-12-13T06:55:26.378Z,52.21
2022-12-13T06:57:54.471Z,52.29
2022-12-13T07:00:27.172Z,51.99
2022-12-13T07:03:06.642Z,51.68
2022-12-13T07:05:34.842Z,51.63
2022-12-13T07:08:02.992Z,51.15
2022-12-13T07:10:31.451Z,51.70
2022-12-13T07:12:59.696Z,51.79
2022-12-13T07:15:27.942Z,51.88
2022-12-13T07:17:56.210Z,52.27
2022-12-13T07:20:25.706Z,51.69
2022-12-13T07:22:58.803Z,51.66
2022-12-13T07:25:29.490Z,52.10
2022-12-13T07:28:03.470Z,52.07
2022-12-13T07:30:34.415Z,52.47
2022-12-13T07:33:10.747Z,53.43
2022-12-13T07:35:40.826Z,53.00
2022-12-13T07:38:11.665Z,52.93
2022-12-13T07:40:41.745Z,53.36
2022-12-13T07:43:11.868Z,53.28
2022-12-13T07:45:39.989Z,53.52
2022-12-13T07:48:09.266Z,52.94
2022-12-13T07:50:38.939Z,52.63
2022-12-13T07:53:10.586Z,53.19
2022-12-13T07:55:40.333Z,53.90
2022-12-13T07:58:11.159Z,53.16
2022-12-13T08:00:40.352Z,53.15
2022-12-13T08:03:25.250Z,52.97
2022-12-13T08:06:02.549Z,52.80
2022-12-13T08:08:31.912Z,52.78
2022-12-13T08:11:04.761Z,53.21
2022-12-13T08:13:33.326Z,53.12
2022-12-13T08:16:03.022Z,53.54
2022-12-13T08:18:31.995Z,53.32
2022-12-13T08:21:02.016Z,53.07
2022-12-13T08:23:32.262Z,53.70
2022-12-13T08:26:02.583Z,52.92
2022-12-13T08:28:32.144Z,53.19
2022-12-13T08:31:12.452Z,53.76
2022-12-13T08:33:43.587Z,53.89
2022-12-13T08:36:18.939Z,53.49
2022-12-13T08:38:47.645Z,53.67
2022-12-13T08:41:18.140Z,53.70
2022-12-13T08:43:46.303Z,53.90
2022-12-13T08:46:14.745Z,54.74
2022-12-13T08:48:43.943Z,55.27
2022-12-13T08:51:24.628Z,55.38
2022-12-13T08:53:53.946Z,55.86
2022-12-13T08:56:39.053Z,56.63
2022-12-13T08:59:11.878Z,56.68
2022-12-13T09:01:44.214Z,56.38
2022-12-13T09:04:12.621Z,57.15
2022-12-13T09:06:43.241Z,57.25
2022-12-13T09:09:11.897Z,57.11
2022-12-13T09:11:41.723Z,56.60
2022-12-13T09:14:13.900Z,56.63
2022-12-13T09:16:42.413Z,57.39
2022-12-13T09:19:25.150Z,56.57
2022-12-13T09:22:02.786Z,57.02
2022-12-13T09:24:37.177Z,56.59
2022-12-13T09:27:09.573Z,57.65
2022-12-13T09:29:39.227Z,57.07
2022-12-13T09:32:07.501Z,56.68
2022-12-13T09:34:36.136Z,55.87
2022-12-13T09:37:05.638Z,55.87
2022-12-13T09:39:33.697Z,55.82
2022-12-13T09:42:02.003Z,55.88
2022-12-13T09:44:49.697Z,55.52
2022-12-13T09:47:35.736Z,55.93
2022-12-13T09:50:14.763Z,56.33
2022-12-13T09:52:46.662Z,55.63
2022-12-13T09:55:23.207Z,56.13
2022-12-13T09:57:53.437Z,55.22
2022-12-13T10:00:25.696Z,56.38
2022-12-13T10:02:57.166Z,56.37
2022-12-13T10:05:34.320Z,56.50
2022-12-13T10:08:15.842Z,54.86
2022-12-13T10:10:45.059Z,55.12
2022-12-13T10:13:21.668Z,55.92
2022-12-13T10:15:59.948Z,56.14
2022-12-13T10:18:37.198Z,55.70
2022-12-13T10:21:12.591Z,56.11
2022-12-13T10:24:22.722Z,55.81
2022-12-13T10:26:38.027Z,55.45
2022-12-13T10:29:12.155Z,55.42
2022-12-13T10:31:43.603Z,55.53
2022-12-13T10:34:25.472Z,55.61
2022-12-13T10:36:53.777Z,55.76
2022-12-13T10:39:41.438Z,54.14
2022-12-13T10:42:22.979Z,55.17
2022-12-13T10:45:15.115Z,54.96
2022-12-13T10:47:46.997Z,54.74
2022-12-13T10:50:30.413Z,55.28
2022-12-13T10:53:01.428Z,54.63
2022-12-13T10:55:34.639Z,54.77
2022-12-13T10:58:07.257Z,54.82
2022-12-13T11:00:40.907Z,54.08
2022-12-13T11:03:13.188Z,54.69
2022-12-13T11:05:42.038Z,54.62
2022-12-13T11:08:22.606Z,54.83
2022-12-13T11:11:00.230Z,54.84
2022-12-13T11:13:38.387Z,55.58
2022-12-13T11:16:25.077Z,55.55
2022-12-13T11:18:56.449Z,55.33
2022-12-13T11:21:27.397Z,55.95
2022-12-13T11:24:01.490Z,54.94
2022-12-13T11:26:33.927Z,55.99
2022-12-13T11:29:38.552Z,55.30
2022-12-13T11:32:22.835Z,56.24
2022-12-13T11:34:59.219Z,55.48
2022-12-13T11:37:32.880Z,54.90
2022-12-13T11:40:06.677Z,54.70
2022-12-13T11:42:44.834Z,54.77
2022-12-13T11:45:22.378Z,55.06
2022-12-13T11:48:00.603Z,54.45
2022-12-13T11:50:36.953Z,54.84
2022-12-13T11:53:29.858Z,55.10
2022-12-13T11:56:05.263Z,54.03
2022-12-13T11:59:02.440Z,54.06
2022-12-13T12:01:39.363Z,53.57
2022-12-13T12:04:20.162Z,54.59
2022-12-13T12:06:55.526Z,53.70
2022-12-13T12:09:28.984Z,53.44
2022-12-13T12:12:03.985Z,53.78
2022-12-13T12:14:43.145Z,54.32
2022-12-13T12:17:15.156Z,53.81
2022-12-13T12:19:50.074Z,53.59
2022-12-13T12:22:33.255Z,53.96
2022-12-13T12:25:29.027Z,54.13
2022-12-13T12:28:10.569Z,53.74
2022-12-13T12:30:51.717Z,54.04
2022-12-13T12:33:33.690Z,54.11
2022-12-13T12:36:23.720Z,53.65
2022-12-13T12:39:26.244Z,53.21
2022-12-13T12:42:14.102Z,52.49
2022-12-13T12:44:58.843Z,53.04
2022-12-13T12:50:37.032Z,52.89
2022-12-13T12:53:38.465Z,52.54
2022-12-13T12:56:31.703Z,52.98
2022-12-13T12:59:12.425Z,52.53
2022-12-13T13:01:57.358Z,52.54
2022-12-13T13:04:38.884Z,53.00
2022-12-13T13:07:22.584Z,52.78
2022-12-13T13:09:54.614Z,52.65
2022-12-13T13:12:29.907Z,53.25
2022-12-13T13:15:00.630Z,52.72
2022-12-13T13:17:48.444Z,52.91
2022-12-13T13:20:25.578Z,52.29
2022-12-13T13:23:25.222Z,52.94
2022-12-13T13:26:16.350Z,52.15
2022-12-13T13:28:43.438Z,52.42
2022-12-13T13:31:11.572Z,52.25
2022-12-13T13:33:48.817Z,53.14
2022-12-13T13:36:52.381Z,52.33
2022-12-13T13:39:38.117Z,52.68
2022-12-13T13:42:20.375Z,53.06
2022-12-13T13:45:19.137Z,53.10
2022-12-13T13:48:15.045Z,53.03
2022-12-13T13:52:16.661Z,52.96
2022-12-13T13:55:40.556Z,52.97
2022-12-13T13:59:06.103Z,52.70
2022-12-13T14:02:28.540Z,52.75
2022-12-13T14:05:44.981Z,52.32
2022-12-13T14:08:35.756Z,52.30
2022-12-13T14:11:43.951Z,52.50
2022-12-13T14:14:55.196Z,52.58
2022-12-13T14:18:25.743Z,52.32
2022-12-13T14:21:29.688Z,52.30
2022-12-13T14:24:13.263Z,52.83
2022-12-13T14:26:59.757Z,52.47
2022-12-13T14:29:32.823Z,52.66
2022-12-13T14:32:01.397Z,53.02
2022-12-13T14:34:33.873Z,52.45
2022-12-13T14:37:04.540Z,52.18
2022-12-13T14:39:34.924Z,52.18
2022-12-13T14:42:25.797Z,52.32
2022-12-13T14:44:54.268Z,51.88
2022-12-13T14:47:23.239Z,52.50
2022-12-13T14:49:59.216Z,52.42
2022-12-13T14:52:33.384Z,52.29
2022-12-13T14:55:06.795Z,52.06
2022-12-13T14:57:36.969Z,52.54
2022-12-13T15:00:28.497Z,51.92
2022-12-13T15:03:01.751Z,51.77
2022-12-13T15:05:34.626Z,52.32
2022-12-13T15:08:10.680Z,53.17
2022-12-13T15:10:48.298Z,52.97
2022-12-13T15:13:32.784Z,53.61
2022-12-13T15:16:10.209Z,53.04
2022-12-13T15:18:51.013Z,53.42
2022-12-13T15:21:25.485Z,53.34
2022-12-13T15:24:03.885Z,53.59
2022-12-13T15:26:35.121Z,53.63
2022-12-13T15:29:09.967Z,53.20
2022-12-13T15:31:38.918Z,53.51
2022-12-13T15:34:37.730Z,53.33
2022-12-13T15:37:28.431Z,53.56
2022-12-13T15:40:02.648Z,53.84
2022-12-13T15:42:34.706Z,53.84
2022-12-13T15:45:07.383Z,53.54
2022-12-13T15:47:35.667Z,53.34
2022-12-13T15:50:07.067Z,53.74
2022-12-13T15:52:38.302Z,54.31
2022-12-13T15:55:33.195Z,54.06
2022-12-13T15:58:01.440Z,54.51
2022-12-13T16:00:34.329Z,53.79
2022-12-13T16:03:09.909Z,54.73
2022-12-13T16:05:41.332Z,54.38
2022-12-13T16:08:26.421Z,54.44
2022-12-13T16:10:55.677Z,54.67
2022-12-13T16:13:27.740Z,54.31
2022-12-13T16:16:09.372Z,54.93
2022-12-13T16:18:46.130Z,54.20
2022-12-13T16:21:15.193Z,54.36
2022-12-13T16:23:48.332Z,54.64
2022-12-13T16:26:24.256Z,54.57
2022-12-13T16:28:52.353Z,54.88
2022-12-13T16:31:24.210Z,54.19
2022-12-13T16:33:52.729Z,54.30
2022-12-13T16:36:21.325Z,54.12
2022-12-13T16:38:51.324Z,54.53
2022-12-13T16:41:19.439Z,54.31
2022-12-13T16:43:55.705Z,54.04
2022-12-13T16:47:12.024Z,54.85
2022-12-13T16:49:22.387Z,54.52
2022-12-13T16:51:50.594Z,53.97
2022-12-13T16:54:20.405Z,53.62
2022-12-13T16:56:49.424Z,53.90
2022-12-13T16:59:20.601Z,52.95
2022-12-13T17:01:51.219Z,52.59
2022-12-13T17:04:22.328Z,53.18
2022-12-13T17:06:54.832Z,52.71
2022-12-13T17:09:24.132Z,52.13
2022-12-13T17:11:52.582Z,51.94
2022-12-13T17:14:20.637Z,52.16
2022-12-13T17:16:50.116Z,52.03
2022-12-13T17:19:18.242Z,52.13
2022-12-13T17:21:46.363Z,52.36
2022-12-13T17:24:15.288Z,51.90
2022-12-13T17:26:53.859Z,52.30
2022-12-13T17:29:24.496Z,51.97
2022-12-13T17:31:54.392Z,51.78
2022-12-13T17:34:22.883Z,51.15
2022-12-13T17:36:51.029Z,51.21
2022-12-13T17:39:19.374Z,50.93
2022-12-13T17:41:54.690Z,50.77
2022-12-13T17:44:24.976Z,50.76
2022-12-13T17:46:55.775Z,51.01
2022-12-13T17:49:24.909Z,50.92
2022-12-13T17:51:54.050Z,51.08
2022-12-13T17:54:23.877Z,51.16
2022-12-13T17:56:52.582Z,51.27
2022-12-13T17:59:20.721Z,51.31
2022-12-13T18:01:49.213Z,51.34
2022-12-13T18:04:18.666Z,51.63
2022-12-13T18:06:46.751Z,51.45
2022-12-13T18:09:15.229Z,51.50
2022-12-13T18:11:43.288Z,51.60
2022-12-13T18:14:11.368Z,51.31
2022-12-13T18:16:40.424Z,51.52
2022-12-13T18:19:12.021Z,51.45
2022-12-13T18:21:43.058Z,51.52
2022-12-13T18:24:12.269Z,51.97
2022-12-13T18:26:40.451Z,51.96
2022-12-13T18:29:08.534Z,51.66
2022-12-13T18:31:36.693Z,51.76
2022-12-13T18:34:05.014Z,52.47
2022-12-13T18:36:33.763Z,52.36
2022-12-13T18:39:04.140Z,51.50
2022-12-13T18:41:33.659Z,52.02
2022-12-13T18:44:05.161Z,52.10
2022-12-13T18:46:35.949Z,51.63
2022-12-13T18:49:05.138Z,51.62
2022-12-13T18:51:33.887Z,51.56
2022-12-13T18:54:03.334Z,51.74
2022-12-13T18:56:31.452Z,52.45
2022-12-13T18:58:59.828Z,52.56
2022-12-13T19:01:28.575Z,52.72
2022-12-13T19:03:58.293Z,51.89
2022-12-13T19:06:28.669Z,51.84
2022-12-13T19:08:58.800Z,52.43
2022-12-13T19:11:29.969Z,52.01
2022-12-13T19:13:58.284Z,52.31
2022-12-13T19:16:27.386Z,52.02
2022-12-13T19:18:55.632Z,51.44
2022-12-13T19:21:24.495Z,51.30
2022-12-13T19:23:57.775Z,51.59
2022-12-13T19:26:29.056Z,51.63
2022-12-13T19:28:58.709Z,51.09
2022-12-13T19:31:31.792Z,50.56
2022-12-13T19:34:01.967Z,50.36
2022-12-13T19:36:30.934Z,49.91
2022-12-13T19:38:59.140Z,49.79
2022-12-13T19:41:29.500Z,49.37
2022-12-13T19:43:57.575Z,49.31
2022-12-13T19:46:25.867Z,49.26
2022-12-13T19:48:53.992Z,49.28
2022-12-13T19:51:22.688Z,49.47
2022-12-13T19:53:50.797Z,49.86
2022-12-13T19:56:21.787Z,49.69
2022-12-13T19:58:52.191Z,49.58
2022-12-13T20:01:20.741Z,50.64
2022-12-13T20:03:48.945Z,50.78
2022-12-13T20:06:20.578Z,50.66
2022-12-13T20:08:49.133Z,50.26
2022-12-13T20:11:20.297Z,50.64
2022-12-13T20:13:51.313Z,50.69
2022-12-13T20:16:23.044Z,68.01
2022-12-13T20:18:56.731Z,54.83
2022-12-13T20:21:25.601Z,58.90
2022-12-13T20:23:54.676Z,53.27
2022-12-13T20:26:24.838Z,64.56
2022-12-13T20:28:54.385Z,58.38
2022-12-13T20:31:25.197Z,51.74
2022-12-13T20:33:56.697Z,43.95
2022-12-13T20:36:27.185Z,63.53
2022-12-13T20:38:57.146Z,52.41
2022-12-13T20:41:27.014Z,42.81
2022-12-13T20:43:59.456Z,42.33
2022-12-13T20:46:29.286Z,42.52
2022-12-13T20:48:59.648Z,43.54
2022-12-13T20:51:31.562Z,44.05
2022-12-13T20:53:59.920Z,45.09
2022-12-13T20:56:30.539Z,46.02
2022-12-13T20:59:00.267Z,46.15
2022-12-13T21:01:32.506Z,46.54
2022-12-13T21:04:05.312Z,46.84
2022-12-13T21:06:36.415Z,47.41
2022-12-13T21:09:06.296Z,47.99
2022-12-13T21:11:37.541Z,49.27
2022-12-13T21:14:15.175Z,49.23
2022-12-13T21:16:50.915Z,48.68
2022-12-13T21:19:22.360Z,48.85
2022-12-13T21:21:50.783Z,48.98
2022-12-13T21:24:21.157Z,49.08
2022-12-13T21:26:51.046Z,48.99
2022-12-13T21:29:20.569Z,49.04
2022-12-13T21:31:50.808Z,49.49
2022-12-13T21:34:22.612Z,49.05
2022-12-13T21:36:53.036Z,49.16
2022-12-13T21:39:24.054Z,48.99
2022-12-13T21:41:53.803Z,50.15
2022-12-13T21:44:23.685Z,49.73
2022-12-13T21:49:40.063Z,49.59
2022-12-13T21:52:08.161Z,50.40
2022-12-13T21:54:36.384Z,50.00
2022-12-13T21:57:22.317Z,50.05
2022-12-13T21:59:51.975Z,50.42
2022-12-13T22:02:20.560Z,50.66
2022-12-13T22:04:52.130Z,49.90
2022-12-13T22:07:22.791Z,50.13
2022-12-13T22:09:52.439Z,50.71
2022-12-13T22:12:24.312Z,50.29
2022-12-13T22:14:54.447Z,50.50
2022-12-13T22:17:29.708Z,50.96
2022-12-13T22:20:02.949Z,51.01
2022-12-13T22:22:32.291Z,50.65
2022-12-13T22:25:00.366Z,50.68
2022-12-13T22:27:28.588Z,50.69
2022-12-13T22:29:58.523Z,50.74
2022-12-13T22:32:31.244Z,50.45
2022-12-13T22:34:59.462Z,50.22
2022-12-13T22:37:27.574Z,50.72
2022-12-13T22:39:55.620Z,50.70
2022-12-13T22:42:23.741Z,50.93
2022-12-13T22:44:51.885Z,50.39
2022-12-13T22:47:21.900Z,50.98
2022-12-13T22:49:50.033Z,51.36
2022-12-13T22:52:18.599Z,50.97
2022-12-13T22:54:46.794Z,51.28
2022-12-13T22:57:14.937Z,51.07
2022-12-13T22:59:42.987Z,50.60
2022-12-13T23:02:11.357Z,50.81
2022-12-13T23:04:40.890Z,50.39
2022-12-13T23:07:09.031Z,50.88
2022-12-13T23:09:37.150Z,51.09
2022-12-13T23:12:23.629Z,50.56
2022-12-13T23:14:52.290Z,51.01
2022-12-13T23:17:20.346Z,51.10
2022-12-13T23:19:53.469Z,51.25
2022-12-13T23:22:23.353Z,50.71
2022-12-13T23:24:52.056Z,50.97
2022-12-13T23:27:22.148Z,51.00
2022-12-13T23:29:50.276Z,50.80
2022-12-13T23:32:19.081Z,50.96
2022-12-13T23:34:47.251Z,50.63
2022-12-13T23:37:16.657Z,50.27
2022-12-13T23:39:44.780Z,50.23
2022-12-13T23:42:12.884Z,49.59
2022-12-13T23:44:40.925Z,50.56
2022-12-13T23:47:08.995Z,50.07
2022-12-13T23:49:37.096Z,51.20
2022-12-13T23:52:05.267Z,50.91
2022-12-13T23:54:34.636Z,50.44
2022-12-13T23:57:02.712Z,50.64
2022-12-13T23:59:30.946Z,51.04
